Hlavní strana
METAR-TAF:

METAR-TAF

Letiště :

Versailles, Ohio, Spojené státy americké

zeměpisná šířka: 40-12-16N, zeměpisná délka: 084-31-55W, výška: 307 m

Aktuální stav počasí

Zpráva byla vytvořena před 23 minutami, v 05:15 UTC
Jihovýchodní vítr 6 kt
Teplota -3°C
Vlhkost vzduchu 63%
Tlak 1025 hPa
Viditelnost: 16.1 km
Jasno

METAR: KVES 240515Z AUTO 14006KT 10SM CLR M03/M09 A3028 RMK AO2 PNO

Čas: 00:38 (05:38 UTC)


TAF: chybějící

Stav a předpovědi počasí z více než 4 000 letišť (zprávy METAR a TAF).

Červené a žluté tečky na mapě představují dostupné meteorologické stanice.

Když kurzor umístíte na tečku, zobrazí se název stanice.

Pak kliknutím zobrazíte stav a předpověď počasí.

Chcete-li změnit mapu, kliknutím na zelené tlačítko se znaménkem +mapu přiblížíte, kliknutím na zelené tlačítko se znaménkem – mapu oddálíte a kliknutím na zelené šipky přejdete na sousední mapy.


METAR-TAF: